sensor_id;sensor_type;location;lat;lon;timestamp;P1;durP1;ratioP1;P2;durP2;ratioP2
55987;SDS011;75964;50.930;4.514;2024-02-04T00:00:54;21.75;;;14.50;;
55987;SDS011;75964;50.930;4.514;2024-02-04T00:03:20;21.63;;;14.80;;
55987;SDS011;75964;50.930;4.514;2024-02-04T00:05:48;20.15;;;14.18;;
55987;SDS011;75964;50.930;4.514;2024-02-04T00:08:14;24.27;;;15.63;;
55987;SDS011;75964;50.930;4.514;2024-02-04T00:10:42;21.90;;;14.60;;
55987;SDS011;75964;50.930;4.514;2024-02-04T00:13:07;25.13;;;14.57;;
55987;SDS011;75964;50.930;4.514;2024-02-04T00:15:33;23.67;;;14.73;;
55987;SDS011;75964;50.930;4.514;2024-02-04T00:17:59;25.17;;;14.70;;
55987;SDS011;75964;50.930;4.514;2024-02-04T00:20:24;19.20;;;14.30;;
55987;SDS011;75964;50.930;4.514;2024-02-04T00:22:52;24.80;;;14.55;;
55987;SDS011;75964;50.930;4.514;2024-02-04T00:25:18;26.27;;;14.95;;
55987;SDS011;75964;50.930;4.514;2024-02-04T00:27:44;24.05;;;14.98;;
55987;SDS011;75964;50.930;4.514;2024-02-04T00:30:10;21.80;;;14.10;;
55987;SDS011;75964;50.930;4.514;2024-02-04T00:32:35;24.73;;;14.55;;
55987;SDS011;75964;50.930;4.514;2024-02-04T00:35:01;27.05;;;14.02;;
55987;SDS011;75964;50.930;4.514;2024-02-04T00:37:28;24.52;;;13.35;;
55987;SDS011;75964;50.930;4.514;2024-02-04T00:39:53;25.60;;;13.90;;
55987;SDS011;75964;50.930;4.514;2024-02-04T00:42:19;20.15;;;12.70;;
55987;SDS011;75964;50.930;4.514;2024-02-04T00:44:44;24.33;;;12.82;;
55987;SDS011;75964;50.930;4.514;2024-02-04T00:47:10;26.17;;;13.30;;
55987;SDS011;75964;50.930;4.514;2024-02-04T00:49:36;21.00;;;12.45;;
55987;SDS011;75964;50.930;4.514;2024-02-04T00:52:02;24.55;;;12.07;;
55987;SDS011;75964;50.930;4.514;2024-02-04T00:54:27;21.05;;;12.02;;
55987;SDS011;75964;50.930;4.514;2024-02-04T00:56:53;17.67;;;11.80;;
55987;SDS011;75964;50.930;4.514;2024-02-04T00:59:19;18.77;;;11.70;;
55987;SDS011;75964;50.930;4.514;2024-02-04T01:01:44;22.58;;;11.70;;
55987;SDS011;75964;50.930;4.514;2024-02-04T01:04:10;20.60;;;11.20;;
55987;SDS011;75964;50.930;4.514;2024-02-04T01:06:36;20.65;;;11.90;;
55987;SDS011;75964;50.930;4.514;2024-02-04T01:09:02;17.42;;;11.18;;
55987;SDS011;75964;50.930;4.514;2024-02-04T01:11:28;20.63;;;11.45;;
55987;SDS011;75964;50.930;4.514;2024-02-04T01:13:54;22.35;;;11.85;;
55987;SDS011;75964;50.930;4.514;2024-02-04T01:16:20;21.55;;;11.43;;
55987;SDS011;75964;50.930;4.514;2024-02-04T01:18:45;20.95;;;12.88;;
55987;SDS011;75964;50.930;4.514;2024-02-04T01:21:11;21.67;;;11.63;;
55987;SDS011;75964;50.930;4.514;2024-02-04T01:23:37;22.73;;;12.38;;
55987;SDS011;75964;50.930;4.514;2024-02-04T01:26:02;23.90;;;12.00;;
55987;SDS011;75964;50.930;4.514;2024-02-04T01:28:29;20.73;;;12.85;;
55987;SDS011;75964;50.930;4.514;2024-02-04T01:30:55;18.58;;;11.98;;
55987;SDS011;75964;50.930;4.514;2024-02-04T01:33:20;23.33;;;11.68;;
55987;SDS011;75964;50.930;4.514;2024-02-04T01:35:46;21.92;;;11.43;;
55987;SDS011;75964;50.930;4.514;2024-02-04T01:38:12;22.85;;;13.02;;
55987;SDS011;75964;50.930;4.514;2024-02-04T01:40:38;31.10;;;12.93;;
55987;SDS011;75964;50.930;4.514;2024-02-04T01:43:03;27.25;;;14.00;;
55987;SDS011;75964;50.930;4.514;2024-02-04T01:45:29;25.35;;;13.13;;
55987;SDS011;75964;50.930;4.514;2024-02-04T01:47:55;21.73;;;12.18;;
55987;SDS011;75964;50.930;4.514;2024-02-04T01:50:21;26.40;;;13.60;;
55987;SDS011;75964;50.930;4.514;2024-02-04T01:52:48;20.25;;;12.75;;
55987;SDS011;75964;50.930;4.514;2024-02-04T01:55:15;25.25;;;12.90;;
55987;SDS011;75964;50.930;4.514;2024-02-04T01:57:41;19.00;;;12.48;;
55987;SDS011;75964;50.930;4.514;2024-02-04T02:00:08;20.40;;;12.23;;
55987;SDS011;75964;50.930;4.514;2024-02-04T02:05:06;16.73;;;11.10;;
55987;SDS011;75964;50.930;4.514;2024-02-04T02:07:34;23.20;;;12.60;;
55987;SDS011;75964;50.930;4.514;2024-02-04T02:09:59;22.55;;;13.55;;
55987;SDS011;75964;50.930;4.514;2024-02-04T02:12:30;27.48;;;13.05;;
55987;SDS011;75964;50.930;4.514;2024-02-04T02:17:56;20.52;;;13.30;;
55987;SDS011;75964;50.930;4.514;2024-02-04T02:20:41;19.58;;;13.65;;
55987;SDS011;75964;50.930;4.514;2024-02-04T02:23:14;24.83;;;14.07;;
55987;SDS011;75964;50.930;4.514;2024-02-04T02:25:46;18.98;;;12.63;;
55987;SDS011;75964;50.930;4.514;2024-02-04T02:28:13;21.73;;;13.98;;
55987;SDS011;75964;50.930;4.514;2024-02-04T02:30:39;24.42;;;13.88;;
55987;SDS011;75964;50.930;4.514;2024-02-04T02:33:07;28.90;;;15.27;;
55987;SDS011;75964;50.930;4.514;2024-02-04T02:35:33;28.42;;;14.65;;
55987;SDS011;75964;50.930;4.514;2024-02-04T02:40:47;24.77;;;14.75;;
55987;SDS011;75964;50.930;4.514;2024-02-04T02:43:16;21.20;;;14.27;;
55987;SDS011;75964;50.930;4.514;2024-02-04T02:45:43;23.38;;;15.02;;
55987;SDS011;75964;50.930;4.514;2024-02-04T02:48:10;23.17;;;14.63;;
55987;SDS011;75964;50.930;4.514;2024-02-04T02:50:37;27.65;;;15.45;;
55987;SDS011;75964;50.930;4.514;2024-02-04T02:53:03;28.50;;;15.98;;
55987;SDS011;75964;50.930;4.514;2024-02-04T02:55:29;28.95;;;15.68;;
55987;SDS011;75964;50.930;4.514;2024-02-04T02:57:54;25.45;;;15.45;;
55987;SDS011;75964;50.930;4.514;2024-02-04T03:00:20;24.35;;;15.05;;
55987;SDS011;75964;50.930;4.514;2024-02-04T03:02:46;28.27;;;15.38;;
55987;SDS011;75964;50.930;4.514;2024-02-04T03:05:12;26.35;;;15.05;;
55987;SDS011;75964;50.930;4.514;2024-02-04T03:07:40;26.70;;;15.07;;
55987;SDS011;75964;50.930;4.514;2024-02-04T03:10:06;25.85;;;15.15;;
55987;SDS011;75964;50.930;4.514;2024-02-04T03:12:31;24.52;;;13.98;;
55987;SDS011;75964;50.930;4.514;2024-02-04T03:14:57;26.85;;;15.57;;
55987;SDS011;75964;50.930;4.514;2024-02-04T03:17:23;25.10;;;14.73;;
55987;SDS011;75964;50.930;4.514;2024-02-04T03:19:49;29.52;;;14.63;;
55987;SDS011;75964;50.930;4.514;2024-02-04T03:22:16;25.65;;;14.57;;
55987;SDS011;75964;50.930;4.514;2024-02-04T03:24:43;23.02;;;14.30;;
55987;SDS011;75964;50.930;4.514;2024-02-04T03:27:08;25.15;;;14.55;;
55987;SDS011;75964;50.930;4.514;2024-02-04T03:29:34;25.02;;;15.02;;
55987;SDS011;75964;50.930;4.514;2024-02-04T03:32:01;26.48;;;14.48;;
55987;SDS011;75964;50.930;4.514;2024-02-04T03:34:28;27.92;;;14.63;;
55987;SDS011;75964;50.930;4.514;2024-02-04T03:36:53;28.35;;;15.40;;
55987;SDS011;75964;50.930;4.514;2024-02-04T03:39:19;27.45;;;16.10;;
55987;SDS011;75964;50.930;4.514;2024-02-04T03:41:45;27.83;;;14.77;;
55987;SDS011;75964;50.930;4.514;2024-02-04T03:44:11;27.77;;;15.82;;
55987;SDS011;75964;50.930;4.514;2024-02-04T03:46:36;24.92;;;14.73;;
55987;SDS011;75964;50.930;4.514;2024-02-04T03:49:05;28.13;;;16.38;;
55987;SDS011;75964;50.930;4.514;2024-02-04T03:51:33;26.85;;;15.18;;
55987;SDS011;75964;50.930;4.514;2024-02-04T03:53:59;26.10;;;14.70;;
55987;SDS011;75964;50.930;4.514;2024-02-04T03:56:25;26.20;;;14.00;;
55987;SDS011;75964;50.930;4.514;2024-02-04T03:58:50;24.70;;;14.32;;
55987;SDS011;75964;50.930;4.514;2024-02-04T04:01:16;28.15;;;14.20;;
55987;SDS011;75964;50.930;4.514;2024-02-04T04:03:42;23.23;;;12.93;;
55987;SDS011;75964;50.930;4.514;2024-02-04T04:06:11;23.95;;;14.38;;
55987;SDS011;75964;50.930;4.514;2024-02-04T04:08:37;20.93;;;13.03;;
55987;SDS011;75964;50.930;4.514;2024-02-04T04:11:03;24.65;;;12.60;;
55987;SDS011;75964;50.930;4.514;2024-02-04T04:13:29;24.08;;;13.43;;
55987;SDS011;75964;50.930;4.514;2024-02-04T04:15:55;26.20;;;13.15;;
55987;SDS011;75964;50.930;4.514;2024-02-04T04:18:20;21.35;;;12.77;;
55987;SDS011;75964;50.930;4.514;2024-02-04T04:20:46;23.30;;;12.90;;
55987;SDS011;75964;50.930;4.514;2024-02-04T04:23:12;22.70;;;12.95;;
55987;SDS011;75964;50.930;4.514;2024-02-04T04:25:37;29.15;;;13.60;;
55987;SDS011;75964;50.930;4.514;2024-02-04T04:28:03;25.10;;;13.35;;
55987;SDS011;75964;50.930;4.514;2024-02-04T04:30:29;23.33;;;13.30;;
55987;SDS011;75964;50.930;4.514;2024-02-04T04:32:55;22.63;;;12.77;;
55987;SDS011;75964;50.930;4.514;2024-02-04T04:35:21;22.55;;;12.82;;
55987;SDS011;75964;50.930;4.514;2024-02-04T04:37:47;22.63;;;14.20;;
55987;SDS011;75964;50.930;4.514;2024-02-04T04:40:13;29.58;;;14.07;;
55987;SDS011;75964;50.930;4.514;2024-02-04T04:42:38;22.17;;;13.65;;
55987;SDS011;75964;50.930;4.514;2024-02-04T04:45:04;25.25;;;13.20;;
55987;SDS011;75964;50.930;4.514;2024-02-04T04:47:30;24.02;;;14.07;;
55987;SDS011;75964;50.930;4.514;2024-02-04T04:49:56;20.63;;;12.32;;
55987;SDS011;75964;50.930;4.514;2024-02-04T04:52:21;21.20;;;11.43;;
55987;SDS011;75964;50.930;4.514;2024-02-04T04:54:47;20.92;;;12.13;;
55987;SDS011;75964;50.930;4.514;2024-02-04T04:57:13;30.15;;;12.15;;
55987;SDS011;75964;50.930;4.514;2024-02-04T04:59:39;23.30;;;11.38;;
55987;SDS011;75964;50.930;4.514;2024-02-04T05:02:05;18.15;;;11.40;;
55987;SDS011;75964;50.930;4.514;2024-02-04T05:04:30;21.83;;;11.32;;
55987;SDS011;75964;50.930;4.514;2024-02-04T05:06:56;20.00;;;10.95;;
55987;SDS011;75964;50.930;4.514;2024-02-04T05:09:22;20.58;;;11.40;;
55987;SDS011;75964;50.930;4.514;2024-02-04T05:11:47;19.45;;;11.27;;
55987;SDS011;75964;50.930;4.514;2024-02-04T05:14:13;21.27;;;11.57;;
55987;SDS011;75964;50.930;4.514;2024-02-04T05:16:39;20.40;;;11.25;;
55987;SDS011;75964;50.930;4.514;2024-02-04T05:19:04;22.42;;;10.82;;
55987;SDS011;75964;50.930;4.514;2024-02-04T05:21:30;20.42;;;10.35;;
55987;SDS011;75964;50.930;4.514;2024-02-04T05:23:55;20.33;;;10.32;;
55987;SDS011;75964;50.930;4.514;2024-02-04T05:26:21;16.33;;;9.75;;
55987;SDS011;75964;50.930;4.514;2024-02-04T05:28:47;23.48;;;10.07;;
55987;SDS011;75964;50.930;4.514;2024-02-04T05:31:12;15.20;;;9.57;;
55987;SDS011;75964;50.930;4.514;2024-02-04T05:33:38;18.08;;;10.02;;
55987;SDS011;75964;50.930;4.514;2024-02-04T05:36:04;16.00;;;9.65;;
55987;SDS011;75964;50.930;4.514;2024-02-04T05:38:30;15.85;;;9.50;;
55987;SDS011;75964;50.930;4.514;2024-02-04T05:40:55;14.50;;;9.45;;
55987;SDS011;75964;50.930;4.514;2024-02-04T05:43:21;18.30;;;9.63;;
55987;SDS011;75964;50.930;4.514;2024-02-04T05:45:47;17.05;;;8.80;;
55987;SDS011;75964;50.930;4.514;2024-02-04T05:48:13;20.48;;;9.70;;
55987;SDS011;75964;50.930;4.514;2024-02-04T05:50:38;16.85;;;9.02;;
55987;SDS011;75964;50.930;4.514;2024-02-04T05:53:04;14.10;;;9.05;;
55987;SDS011;75964;50.930;4.514;2024-02-04T05:55:30;15.48;;;9.63;;
55987;SDS011;75964;50.930;4.514;2024-02-04T05:57:56;20.33;;;10.20;;
55987;SDS011;75964;50.930;4.514;2024-02-04T06:00:21;21.08;;;10.13;;
55987;SDS011;75964;50.930;4.514;2024-02-04T06:02:48;20.58;;;9.75;;
55987;SDS011;75964;50.930;4.514;2024-02-04T06:05:13;22.42;;;10.93;;
55987;SDS011;75964;50.930;4.514;2024-02-04T06:07:39;22.58;;;11.38;;
55987;SDS011;75964;50.930;4.514;2024-02-04T06:10:10;22.45;;;10.50;;
55987;SDS011;75964;50.930;4.514;2024-02-04T06:12:36;26.30;;;10.90;;
55987;SDS011;75964;50.930;4.514;2024-02-04T06:15:02;29.27;;;11.70;;
55987;SDS011;75964;50.930;4.514;2024-02-04T06:17:29;22.25;;;11.52;;
55987;SDS011;75964;50.930;4.514;2024-02-04T06:19:54;24.73;;;11.30;;
55987;SDS011;75964;50.930;4.514;2024-02-04T06:22:21;22.42;;;12.40;;
55987;SDS011;75964;50.930;4.514;2024-02-04T06:24:47;29.58;;;13.20;;
55987;SDS011;75964;50.930;4.514;2024-02-04T06:27:13;30.90;;;13.95;;
55987;SDS011;75964;50.930;4.514;2024-02-04T06:29:39;35.00;;;14.38;;
55987;SDS011;75964;50.930;4.514;2024-02-04T06:32:05;30.58;;;14.57;;
55987;SDS011;75964;50.930;4.514;2024-02-04T06:34:31;32.33;;;14.82;;
55987;SDS011;75964;50.930;4.514;2024-02-04T06:36:57;27.15;;;15.35;;
55987;SDS011;75964;50.930;4.514;2024-02-04T06:39:22;33.42;;;15.43;;
55987;SDS011;75964;50.930;4.514;2024-02-04T06:41:48;25.38;;;14.05;;
55987;SDS011;75964;50.930;4.514;2024-02-04T06:44:13;30.25;;;14.63;;
55987;SDS011;75964;50.930;4.514;2024-02-04T06:46:40;26.25;;;12.95;;
55987;SDS011;75964;50.930;4.514;2024-02-04T06:49:05;24.60;;;13.60;;
55987;SDS011;75964;50.930;4.514;2024-02-04T06:51:31;37.25;;;13.98;;
55987;SDS011;75964;50.930;4.514;2024-02-04T06:53:57;32.85;;;14.48;;
55987;SDS011;75964;50.930;4.514;2024-02-04T06:56:23;27.58;;;13.57;;
55987;SDS011;75964;50.930;4.514;2024-02-04T06:58:49;25.80;;;13.18;;
55987;SDS011;75964;50.930;4.514;2024-02-04T07:01:14;32.05;;;14.57;;
55987;SDS011;75964;50.930;4.514;2024-02-04T07:03:40;27.83;;;13.40;;
55987;SDS011;75964;50.930;4.514;2024-02-04T07:06:06;28.73;;;13.68;;
55987;SDS011;75964;50.930;4.514;2024-02-04T07:08:32;26.00;;;12.13;;
55987;SDS011;75964;50.930;4.514;2024-02-04T07:10:58;23.98;;;12.52;;
55987;SDS011;75964;50.930;4.514;2024-02-04T07:13:23;23.40;;;12.15;;
55987;SDS011;75964;50.930;4.514;2024-02-04T07:15:49;24.15;;;11.77;;
55987;SDS011;75964;50.930;4.514;2024-02-04T07:18:14;19.60;;;10.88;;
55987;SDS011;75964;50.930;4.514;2024-02-04T07:20:42;23.08;;;11.15;;
55987;SDS011;75964;50.930;4.514;2024-02-04T07:23:08;21.00;;;10.75;;
55987;SDS011;75964;50.930;4.514;2024-02-04T07:25:34;23.20;;;10.50;;
55987;SDS011;75964;50.930;4.514;2024-02-04T07:28:00;20.27;;;11.45;;
55987;SDS011;75964;50.930;4.514;2024-02-04T07:30:26;24.08;;;12.02;;
55987;SDS011;75964;50.930;4.514;2024-02-04T07:32:51;20.83;;;11.30;;
55987;SDS011;75964;50.930;4.514;2024-02-04T07:35:17;23.92;;;12.32;;
55987;SDS011;75964;50.930;4.514;2024-02-04T07:37:43;28.75;;;12.35;;
55987;SDS011;75964;50.930;4.514;2024-02-04T07:40:09;28.48;;;12.98;;
55987;SDS011;75964;50.930;4.514;2024-02-04T07:42:35;25.40;;;12.95;;
55987;SDS011;75964;50.930;4.514;2024-02-04T07:45:00;23.98;;;13.07;;
55987;SDS011;75964;50.930;4.514;2024-02-04T07:47:33;26.80;;;12.45;;
55987;SDS011;75964;50.930;4.514;2024-02-04T07:49:59;28.58;;;13.98;;
55987;SDS011;75964;50.930;4.514;2024-02-04T07:52:24;28.65;;;14.07;;
55987;SDS011;75964;50.930;4.514;2024-02-04T07:54:50;25.30;;;12.85;;
55987;SDS011;75964;50.930;4.514;2024-02-04T07:57:15;25.30;;;13.63;;
55987;SDS011;75964;50.930;4.514;2024-02-04T07:59:41;21.90;;;13.82;;
55987;SDS011;75964;50.930;4.514;2024-02-04T08:02:07;27.42;;;14.30;;
55987;SDS011;75964;50.930;4.514;2024-02-04T08:04:33;23.98;;;13.35;;
55987;SDS011;75964;50.930;4.514;2024-02-04T08:06:59;23.70;;;13.38;;
55987;SDS011;75964;50.930;4.514;2024-02-04T08:09:24;29.02;;;15.45;;
55987;SDS011;75964;50.930;4.514;2024-02-04T08:11:50;32.15;;;15.48;;
55987;SDS011;75964;50.930;4.514;2024-02-04T08:14:15;25.27;;;15.90;;
55987;SDS011;75964;50.930;4.514;2024-02-04T08:16:42;25.55;;;15.18;;
55987;SDS011;75964;50.930;4.514;2024-02-04T08:19:08;24.75;;;13.75;;
55987;SDS011;75964;50.930;4.514;2024-02-04T08:21:34;28.55;;;14.25;;
55987;SDS011;75964;50.930;4.514;2024-02-04T08:24:00;29.67;;;15.10;;
55987;SDS011;75964;50.930;4.514;2024-02-04T08:26:25;22.88;;;13.30;;
55987;SDS011;75964;50.930;4.514;2024-02-04T08:28:51;20.75;;;12.60;;
55987;SDS011;75964;50.930;4.514;2024-02-04T08:31:16;25.20;;;12.35;;
55987;SDS011;75964;50.930;4.514;2024-02-04T08:33:42;26.60;;;11.98;;
55987;SDS011;75964;50.930;4.514;2024-02-04T08:36:08;21.90;;;10.10;;
55987;SDS011;75964;50.930;4.514;2024-02-04T08:38:35;22.52;;;9.48;;
55987;SDS011;75964;50.930;4.514;2024-02-04T08:41:02;14.05;;;8.52;;
55987;SDS011;75964;50.930;4.514;2024-02-04T08:43:28;17.98;;;8.35;;
55987;SDS011;75964;50.930;4.514;2024-02-04T08:45:54;14.75;;;7.82;;
55987;SDS011;75964;50.930;4.514;2024-02-04T08:48:19;14.77;;;7.47;;
55987;SDS011;75964;50.930;4.514;2024-02-04T08:50:45;15.77;;;6.82;;
55987;SDS011;75964;50.930;4.514;2024-02-04T08:53:10;14.45;;;6.78;;
55987;SDS011;75964;50.930;4.514;2024-02-04T08:55:36;18.90;;;6.60;;
55987;SDS011;75964;50.930;4.514;2024-02-04T08:58:02;15.88;;;7.53;;
55987;SDS011;75964;50.930;4.514;2024-02-04T09:00:27;14.23;;;7.28;;
55987;SDS011;75964;50.930;4.514;2024-02-04T09:02:53;17.15;;;7.70;;
55987;SDS011;75964;50.930;4.514;2024-02-04T09:05:19;19.63;;;7.95;;
55987;SDS011;75964;50.930;4.514;2024-02-04T09:07:45;17.65;;;8.48;;
55987;SDS011;75964;50.930;4.514;2024-02-04T09:10:11;15.45;;;6.80;;
55987;SDS011;75964;50.930;4.514;2024-02-04T09:12:37;15.32;;;7.35;;
55987;SDS011;75964;50.930;4.514;2024-02-04T09:15:03;19.60;;;6.93;;
55987;SDS011;75964;50.930;4.514;2024-02-04T09:17:30;21.42;;;8.13;;
55987;SDS011;75964;50.930;4.514;2024-02-04T09:19:58;16.42;;;7.50;;
55987;SDS011;75964;50.930;4.514;2024-02-04T09:22:24;13.25;;;6.97;;
55987;SDS011;75964;50.930;4.514;2024-02-04T09:24:49;12.95;;;7.65;;
55987;SDS011;75964;50.930;4.514;2024-02-04T09:27:15;16.40;;;7.40;;
55987;SDS011;75964;50.930;4.514;2024-02-04T09:29:41;12.50;;;6.97;;
55987;SDS011;75964;50.930;4.514;2024-02-04T09:32:06;13.32;;;7.00;;
55987;SDS011;75964;50.930;4.514;2024-02-04T09:34:32;14.82;;;6.53;;
55987;SDS011;75964;50.930;4.514;2024-02-04T09:36:58;15.27;;;7.22;;
55987;SDS011;75964;50.930;4.514;2024-02-04T09:39:24;15.02;;;6.03;;
55987;SDS011;75964;50.930;4.514;2024-02-04T09:41:50;15.65;;;6.03;;
55987;SDS011;75964;50.930;4.514;2024-02-04T09:44:16;10.80;;;5.55;;
55987;SDS011;75964;50.930;4.514;2024-02-04T09:46:42;10.93;;;5.47;;
55987;SDS011;75964;50.930;4.514;2024-02-04T09:49:08;12.73;;;5.13;;
55987;SDS011;75964;50.930;4.514;2024-02-04T09:51:39;16.25;;;5.35;;
55987;SDS011;75964;50.930;4.514;2024-02-04T09:54:05;13.68;;;4.97;;
55987;SDS011;75964;50.930;4.514;2024-02-04T09:56:34;15.00;;;4.93;;
55987;SDS011;75964;50.930;4.514;2024-02-04T09:59:02;16.55;;;5.25;;
55987;SDS011;75964;50.930;4.514;2024-02-04T10:01:28;13.32;;;4.65;;
55987;SDS011;75964;50.930;4.514;2024-02-04T10:03:54;11.77;;;4.15;;
55987;SDS011;75964;50.930;4.514;2024-02-04T10:06:19;13.13;;;4.88;;
55987;SDS011;75964;50.930;4.514;2024-02-04T10:08:45;13.48;;;4.40;;
55987;SDS011;75964;50.930;4.514;2024-02-04T10:11:11;9.88;;;4.60;;
55987;SDS011;75964;50.930;4.514;2024-02-04T10:13:46;12.55;;;4.28;;
55987;SDS011;75964;50.930;4.514;2024-02-04T10:16:14;13.00;;;5.07;;
55987;SDS011;75964;50.930;4.514;2024-02-04T10:18:42;11.02;;;4.10;;
55987;SDS011;75964;50.930;4.514;2024-02-04T10:23:40;11.48;;;4.07;;
55987;SDS011;75964;50.930;4.514;2024-02-04T10:26:06;11.77;;;4.07;;
55987;SDS011;75964;50.930;4.514;2024-02-04T10:28:32;11.60;;;4.07;;
55987;SDS011;75964;50.930;4.514;2024-02-04T10:30:57;8.93;;;3.45;;
55987;SDS011;75964;50.930;4.514;2024-02-04T10:33:23;10.30;;;4.07;;
55987;SDS011;75964;50.930;4.514;2024-02-04T10:35:48;13.77;;;3.47;;
55987;SDS011;75964;50.930;4.514;2024-02-04T10:38:14;14.93;;;4.20;;
55987;SDS011;75964;50.930;4.514;2024-02-04T10:40:40;10.90;;;4.65;;
55987;SDS011;75964;50.930;4.514;2024-02-04T10:43:05;10.02;;;3.80;;
55987;SDS011;75964;50.930;4.514;2024-02-04T10:45:32;10.95;;;4.07;;
55987;SDS011;75964;50.930;4.514;2024-02-04T10:48:03;12.10;;;3.80;;
55987;SDS011;75964;50.930;4.514;2024-02-04T10:50:31;12.07;;;4.03;;
55987;SDS011;75964;50.930;4.514;2024-02-04T10:53:01;10.68;;;3.78;;
55987;SDS011;75964;50.930;4.514;2024-02-04T10:55:32;12.05;;;4.10;;
55987;SDS011;75964;50.930;4.514;2024-02-04T10:58:04;12.85;;;4.13;;
55987;SDS011;75964;50.930;4.514;2024-02-04T11:00:32;13.65;;;4.65;;
55987;SDS011;75964;50.930;4.514;2024-02-04T11:02:59;10.73;;;4.38;;
55987;SDS011;75964;50.930;4.514;2024-02-04T11:05:27;13.15;;;4.45;;
55987;SDS011;75964;50.930;4.514;2024-02-04T11:07:54;10.18;;;4.10;;
55987;SDS011;75964;50.930;4.514;2024-02-04T11:10:20;12.70;;;4.53;;
55987;SDS011;75964;50.930;4.514;2024-02-04T11:12:47;10.43;;;4.40;;
55987;SDS011;75964;50.930;4.514;2024-02-04T11:26:24;9.23;;;3.92;;
55987;SDS011;75964;50.930;4.514;2024-02-04T11:28:51;10.40;;;3.55;;
55987;SDS011;75964;50.930;4.514;2024-02-04T11:31:17;8.50;;;3.75;;
55987;SDS011;75964;50.930;4.514;2024-02-04T11:33:53;10.43;;;4.13;;
55987;SDS011;75964;50.930;4.514;2024-02-04T11:54:36;9.75;;;2.90;;
55987;SDS011;75964;50.930;4.514;2024-02-04T11:57:44;7.75;;;2.85;;
55987;SDS011;75964;50.930;4.514;2024-02-04T12:28:54;12.68;;;3.10;;
55987;SDS011;75964;50.930;4.514;2024-02-04T13:45:02;7.85;;;2.10;;
55987;SDS011;75964;50.930;4.514;2024-02-04T14:09:04;3.70;;;2.03;;
55987;SDS011;75964;50.930;4.514;2024-02-04T14:15:39;6.05;;;2.15;;
55987;SDS011;75964;50.930;4.514;2024-02-04T14:24:56;7.38;;;2.08;;
55987;SDS011;75964;50.930;4.514;2024-02-04T14:39:40;9.35;;;2.30;;
55987;SDS011;75964;50.930;4.514;2024-02-04T14:50:15;10.80;;;2.75;;
55987;SDS011;75964;50.930;4.514;2024-02-04T15:00:22;6.60;;;2.85;;
55987;SDS011;75964;50.930;4.514;2024-02-04T15:10:31;14.38;;;3.45;;
55987;SDS011;75964;50.930;4.514;2024-02-04T15:36:38;11.95;;;3.50;;
55987;SDS011;75964;50.930;4.514;2024-02-04T15:39:03;12.40;;;3.75;;
55987;SDS011;75964;50.930;4.514;2024-02-04T15:41:30;10.38;;;3.35;;
55987;SDS011;75964;50.930;4.514;2024-02-04T15:43:57;12.70;;;3.70;;
55987;SDS011;75964;50.930;4.514;2024-02-04T15:46:22;12.27;;;3.72;;
55987;SDS011;75964;50.930;4.514;2024-02-04T15:48:49;18.58;;;3.92;;
55987;SDS011;75964;50.930;4.514;2024-02-04T15:51:17;8.30;;;3.67;;
55987;SDS011;75964;50.930;4.514;2024-02-04T15:53:43;9.18;;;3.70;;
55987;SDS011;75964;50.930;4.514;2024-02-04T15:56:09;12.10;;;3.40;;
55987;SDS011;75964;50.930;4.514;2024-02-04T15:58:36;15.77;;;3.78;;
55987;SDS011;75964;50.930;4.514;2024-02-04T16:01:10;12.38;;;3.38;;
55987;SDS011;75964;50.930;4.514;2024-02-04T16:03:40;11.60;;;3.35;;
55987;SDS011;75964;50.930;4.514;2024-02-04T16:06:07;13.45;;;3.30;;
55987;SDS011;75964;50.930;4.514;2024-02-04T16:08:33;12.32;;;2.90;;
55987;SDS011;75964;50.930;4.514;2024-02-04T16:11:01;11.15;;;2.97;;
55987;SDS011;75964;50.930;4.514;2024-02-04T16:13:31;12.68;;;3.28;;
55987;SDS011;75964;50.930;4.514;2024-02-04T16:15:59;11.93;;;3.70;;
55987;SDS011;75964;50.930;4.514;2024-02-04T16:18:27;13.23;;;3.67;;
55987;SDS011;75964;50.930;4.514;2024-02-04T16:20:53;14.10;;;4.43;;
55987;SDS011;75964;50.930;4.514;2024-02-04T16:23:19;12.73;;;3.63;;
55987;SDS011;75964;50.930;4.514;2024-02-04T16:25:45;14.23;;;4.07;;
55987;SDS011;75964;50.930;4.514;2024-02-04T16:28:10;13.07;;;4.03;;
55987;SDS011;75964;50.930;4.514;2024-02-04T16:30:36;12.93;;;3.60;;
55987;SDS011;75964;50.930;4.514;2024-02-04T16:33:02;14.75;;;3.85;;
55987;SDS011;75964;50.930;4.514;2024-02-04T16:35:28;16.50;;;3.95;;
55987;SDS011;75964;50.930;4.514;2024-02-04T16:37:53;12.55;;;3.60;;
55987;SDS011;75964;50.930;4.514;2024-02-04T16:40:19;16.35;;;4.32;;
55987;SDS011;75964;50.930;4.514;2024-02-04T16:42:45;20.23;;;4.55;;
55987;SDS011;75964;50.930;4.514;2024-02-04T16:45:11;17.13;;;4.03;;
55987;SDS011;75964;50.930;4.514;2024-02-04T16:47:37;12.85;;;3.85;;
55987;SDS011;75964;50.930;4.514;2024-02-04T16:50:02;18.60;;;3.85;;
55987;SDS011;75964;50.930;4.514;2024-02-04T16:52:29;16.88;;;3.90;;
55987;SDS011;75964;50.930;4.514;2024-02-04T16:54:54;15.32;;;3.95;;
55987;SDS011;75964;50.930;4.514;2024-02-04T16:57:21;16.17;;;4.00;;
55987;SDS011;75964;50.930;4.514;2024-02-04T16:59:47;17.77;;;4.00;;
55987;SDS011;75964;50.930;4.514;2024-02-04T17:02:13;20.70;;;4.15;;
55987;SDS011;75964;50.930;4.514;2024-02-04T17:04:42;13.98;;;3.95;;
55987;SDS011;75964;50.930;4.514;2024-02-04T17:07:09;11.60;;;3.58;;
55987;SDS011;75964;50.930;4.514;2024-02-04T17:09:35;18.30;;;4.32;;
55987;SDS011;75964;50.930;4.514;2024-02-04T17:12:02;17.52;;;4.70;;
55987;SDS011;75964;50.930;4.514;2024-02-04T17:14:28;20.17;;;4.25;;
55987;SDS011;75964;50.930;4.514;2024-02-04T17:17:13;21.55;;;4.13;;
55987;SDS011;75964;50.930;4.514;2024-02-04T17:22:36;9.80;;;3.05;;
55987;SDS011;75964;50.930;4.514;2024-02-04T17:25:03;14.30;;;3.97;;
55987;SDS011;75964;50.930;4.514;2024-02-04T17:27:34;13.70;;;3.97;;
55987;SDS011;75964;50.930;4.514;2024-02-04T17:30:03;15.30;;;3.78;;
55987;SDS011;75964;50.930;4.514;2024-02-04T17:32:31;13.73;;;3.70;;
55987;SDS011;75964;50.930;4.514;2024-02-04T17:34:58;14.88;;;4.07;;
55987;SDS011;75964;50.930;4.514;2024-02-04T17:37:25;14.73;;;4.00;;
55987;SDS011;75964;50.930;4.514;2024-02-04T17:39:51;13.32;;;3.90;;
55987;SDS011;75964;50.930;4.514;2024-02-04T17:42:17;12.02;;;3.58;;
55987;SDS011;75964;50.930;4.514;2024-02-04T17:44:43;17.38;;;4.43;;
55987;SDS011;75964;50.930;4.514;2024-02-04T17:47:08;13.35;;;3.95;;
55987;SDS011;75964;50.930;4.514;2024-02-04T17:49:35;19.15;;;4.53;;
55987;SDS011;75964;50.930;4.514;2024-02-04T17:52:00;12.55;;;4.10;;
55987;SDS011;75964;50.930;4.514;2024-02-04T17:54:26;19.27;;;5.20;;
55987;SDS011;75964;50.930;4.514;2024-02-04T17:56:52;20.35;;;4.78;;
55987;SDS011;75964;50.930;4.514;2024-02-04T17:59:19;20.58;;;4.88;;
55987;SDS011;75964;50.930;4.514;2024-02-04T18:01:45;23.08;;;4.85;;
55987;SDS011;75964;50.930;4.514;2024-02-04T18:04:11;19.75;;;4.72;;
55987;SDS011;75964;50.930;4.514;2024-02-04T18:06:37;14.07;;;3.95;;
55987;SDS011;75964;50.930;4.514;2024-02-04T18:09:06;17.15;;;4.95;;
55987;SDS011;75964;50.930;4.514;2024-02-04T18:11:32;16.65;;;4.75;;
55987;SDS011;75964;50.930;4.514;2024-02-04T18:13:58;15.43;;;5.10;;
55987;SDS011;75964;50.930;4.514;2024-02-04T18:16:26;21.23;;;4.18;;
55987;SDS011;75964;50.930;4.514;2024-02-04T18:21:22;15.18;;;4.20;;
55987;SDS011;75964;50.930;4.514;2024-02-04T18:23:49;12.52;;;3.90;;